sensor_id;sensor_type;location;lat;lon;timestamp;temperature;humidity
14850;DHT22;7517;48.400;11.770;2024-03-23T00:54:26;14.90;59.90
14850;DHT22;7517;48.400;11.770;2024-03-23T00:56:52;14.80;60.10
14850;DHT22;7517;48.400;11.770;2024-03-23T00:59:20;14.80;60.60
14850;DHT22;7517;48.400;11.770;2024-03-23T01:01:48;14.70;61.10
14850;DHT22;7517;48.400;11.770;2024-03-23T01:04:15;14.60;61.30
14850;DHT22;7517;48.400;11.770;2024-03-23T01:06:43;14.50;61.40
14850;DHT22;7517;48.400;11.770;2024-03-23T01:09:10;14.40;61.60
14850;DHT22;7517;48.400;11.770;2024-03-23T01:11:36;14.40;61.80
14850;DHT22;7517;48.400;11.770;2024-03-23T01:14:04;14.30;61.80
14850;DHT22;7517;48.400;11.770;2024-03-23T01:16:30;14.20;61.70
14850;DHT22;7517;48.400;11.770;2024-03-23T01:18:58;14.10;61.80
14850;DHT22;7517;48.400;11.770;2024-03-23T01:21:24;14.10;62.30
14850;DHT22;7517;48.400;11.770;2024-03-23T01:23:53;14.00;62.40
14850;DHT22;7517;48.400;11.770;2024-03-23T01:26:19;13.90;62.30
14850;DHT22;7517;48.400;11.770;2024-03-23T01:28:46;13.80;62.60
14850;DHT22;7517;48.400;11.770;2024-03-23T01:31:12;13.80;62.60
14850;DHT22;7517;48.400;11.770;2024-03-23T01:33:41;13.70;62.60
14850;DHT22;7517;48.400;11.770;2024-03-23T01:36:07;13.70;62.70
14850;DHT22;7517;48.400;11.770;2024-03-23T01:38:35;13.60;62.90
14850;DHT22;7517;48.400;11.770;2024-03-23T01:41:03;13.50;63.10
14850;DHT22;7517;48.400;11.770;2024-03-23T01:43:30;13.50;63.20
14850;DHT22;7517;48.400;11.770;2024-03-23T01:45:57;13.40;63.30
14850;DHT22;7517;48.400;11.770;2024-03-23T01:48:25;13.30;63.40
14850;DHT22;7517;48.400;11.770;2024-03-23T01:50:51;13.30;63.50
14850;DHT22;7517;48.400;11.770;2024-03-23T01:53:19;13.30;63.90
14850;DHT22;7517;48.400;11.770;2024-03-23T01:55:47;13.20;64.10
14850;DHT22;7517;48.400;11.770;2024-03-23T01:58:16;13.10;64.20
14850;DHT22;7517;48.400;11.770;2024-03-23T02:00:42;13.10;64.40
14850;DHT22;7517;48.400;11.770;2024-03-23T02:03:22;13.10;64.30
14850;DHT22;7517;48.400;11.770;2024-03-23T02:05:49;13.00;64.20
14850;DHT22;7517;48.400;11.770;2024-03-23T02:08:18;12.90;64.20
14850;DHT22;7517;48.400;11.770;2024-03-23T02:10:45;12.90;64.30
14850;DHT22;7517;48.400;11.770;2024-03-23T02:13:13;12.80;64.40
14850;DHT22;7517;48.400;11.770;2024-03-23T02:15:42;12.80;64.80
14850;DHT22;7517;48.400;11.770;2024-03-23T02:18:10;12.70;65.00
14850;DHT22;7517;48.400;11.770;2024-03-23T02:20:37;12.70;65.20
14850;DHT22;7517;48.400;11.770;2024-03-23T02:23:13;12.70;65.40
14850;DHT22;7517;48.400;11.770;2024-03-23T02:25:39;12.60;65.40
14850;DHT22;7517;48.400;11.770;2024-03-23T02:28:07;12.60;65.50
14850;DHT22;7517;48.400;11.770;2024-03-23T02:30:34;12.50;65.70
14850;DHT22;7517;48.400;11.770;2024-03-23T02:33:01;12.50;65.80
14850;DHT22;7517;48.400;11.770;2024-03-23T02:35:28;12.50;65.90
14850;DHT22;7517;48.400;11.770;2024-03-23T02:37:55;12.50;66.00
14850;DHT22;7517;48.400;11.770;2024-03-23T02:40:25;12.50;66.30
14850;DHT22;7517;48.400;11.770;2024-03-23T02:42:54;12.40;66.30
14850;DHT22;7517;48.400;11.770;2024-03-23T02:45:21;12.40;66.20
14850;DHT22;7517;48.400;11.770;2024-03-23T02:47:48;12.30;66.80
14850;DHT22;7517;48.400;11.770;2024-03-23T02:50:18;12.30;66.30
14850;DHT22;7517;48.400;11.770;2024-03-23T02:52:45;12.30;66.50
14850;DHT22;7517;48.400;11.770;2024-03-23T02:55:13;12.20;66.60
14850;DHT22;7517;48.400;11.770;2024-03-23T02:57:42;12.20;66.60
14850;DHT22;7517;48.400;11.770;2024-03-23T03:00:09;12.20;66.50
14850;DHT22;7517;48.400;11.770;2024-03-23T03:02:36;12.10;66.50
14850;DHT22;7517;48.400;11.770;2024-03-23T03:05:03;12.10;66.60
14850;DHT22;7517;48.400;11.770;2024-03-23T03:07:31;12.10;66.80
14850;DHT22;7517;48.400;11.770;2024-03-23T03:09:58;12.10;67.00
14850;DHT22;7517;48.400;11.770;2024-03-23T03:12:25;12.00;67.30
14850;DHT22;7517;48.400;11.770;2024-03-23T03:14:52;12.00;67.40
14850;DHT22;7517;48.400;11.770;2024-03-23T03:17:20;11.90;67.20
14850;DHT22;7517;48.400;11.770;2024-03-23T03:19:46;12.00;67.10
14850;DHT22;7517;48.400;11.770;2024-03-23T03:22:13;12.00;67.10
14850;DHT22;7517;48.400;11.770;2024-03-23T03:24:39;11.90;67.30
14850;DHT22;7517;48.400;11.770;2024-03-23T03:27:07;11.90;67.40
14850;DHT22;7517;48.400;11.770;2024-03-23T03:29:34;11.90;67.40
14850;DHT22;7517;48.400;11.770;2024-03-23T03:32:03;11.90;67.40
14850;DHT22;7517;48.400;11.770;2024-03-23T03:34:29;11.90;67.60
14850;DHT22;7517;48.400;11.770;2024-03-23T03:36:59;11.90;67.80
14850;DHT22;7517;48.400;11.770;2024-03-23T03:39:26;11.90;67.80
14850;DHT22;7517;48.400;11.770;2024-03-23T03:41:53;11.90;67.70
14850;DHT22;7517;48.400;11.770;2024-03-23T03:44:19;11.90;67.70
14850;DHT22;7517;48.400;11.770;2024-03-23T03:46:47;11.90;67.70
14850;DHT22;7517;48.400;11.770;2024-03-23T03:49:15;11.90;67.70
14850;DHT22;7517;48.400;11.770;2024-03-23T03:51:42;11.90;68.40
14850;DHT22;7517;48.400;11.770;2024-03-23T03:54:08;11.90;67.70
14850;DHT22;7517;48.400;11.770;2024-03-23T03:56:36;12.00;67.70
14850;DHT22;7517;48.400;11.770;2024-03-23T03:59:04;12.00;67.60
14850;DHT22;7517;48.400;11.770;2024-03-23T04:01:32;12.00;67.40
14850;DHT22;7517;48.400;11.770;2024-03-23T04:03:59;12.10;67.30
14850;DHT22;7517;48.400;11.770;2024-03-23T04:06:27;12.10;67.10
14850;DHT22;7517;48.400;11.770;2024-03-23T04:08:54;12.20;67.20
14850;DHT22;7517;48.400;11.770;2024-03-23T04:11:22;12.20;67.20
14850;DHT22;7517;48.400;11.770;2024-03-23T04:13:48;12.20;67.30
14850;DHT22;7517;48.400;11.770;2024-03-23T04:16:26;12.30;67.40
14850;DHT22;7517;48.400;11.770;2024-03-23T04:18:55;12.30;67.10
14850;DHT22;7517;48.400;11.770;2024-03-23T04:21:22;12.30;67.00
14850;DHT22;7517;48.400;11.770;2024-03-23T04:23:50;12.30;67.10
14850;DHT22;7517;48.400;11.770;2024-03-23T04:26:17;12.40;67.20
14850;DHT22;7517;48.400;11.770;2024-03-23T04:28:44;12.40;67.20
14850;DHT22;7517;48.400;11.770;2024-03-23T04:31:13;12.40;67.20
14850;DHT22;7517;48.400;11.770;2024-03-23T04:33:41;12.50;67.30
14850;DHT22;7517;48.400;11.770;2024-03-23T04:36:08;12.50;67.30
14850;DHT22;7517;48.400;11.770;2024-03-23T04:38:35;12.50;67.20
14850;DHT22;7517;48.400;11.770;2024-03-23T04:41:04;12.60;67.20
14850;DHT22;7517;48.400;11.770;2024-03-23T04:43:33;12.60;68.00
14850;DHT22;7517;48.400;11.770;2024-03-23T04:46:02;12.60;67.30
14850;DHT22;7517;48.400;11.770;2024-03-23T04:48:30;12.70;67.30
14850;DHT22;7517;48.400;11.770;2024-03-23T04:50:58;12.70;67.30
14850;DHT22;7517;48.400;11.770;2024-03-23T04:53:25;12.80;67.40
14850;DHT22;7517;48.400;11.770;2024-03-23T04:55:55;12.80;67.20
14850;DHT22;7517;48.400;11.770;2024-03-23T04:58:23;12.60;67.10
14850;DHT22;7517;48.400;11.770;2024-03-23T05:00:55;12.90;67.20
14850;DHT22;7517;48.400;11.770;2024-03-23T05:03:22;12.90;67.30
14850;DHT22;7517;48.400;11.770;2024-03-23T05:05:49;13.00;67.30
14850;DHT22;7517;48.400;11.770;2024-03-23T05:08:15;13.00;67.20
14850;DHT22;7517;48.400;11.770;2024-03-23T05:10:43;13.10;68.00
14850;DHT22;7517;48.400;11.770;2024-03-23T05:13:09;13.10;67.20
14850;DHT22;7517;48.400;11.770;2024-03-23T05:15:38;13.20;67.30
14850;DHT22;7517;48.400;11.770;2024-03-23T05:18:06;13.20;67.20
14850;DHT22;7517;48.400;11.770;2024-03-23T05:20:34;13.30;67.20
14850;DHT22;7517;48.400;11.770;2024-03-23T05:23:00;13.30;67.00
14850;DHT22;7517;48.400;11.770;2024-03-23T05:25:27;13.30;66.90
14850;DHT22;7517;48.400;11.770;2024-03-23T05:27:55;13.30;66.70
14850;DHT22;7517;48.400;11.770;2024-03-23T05:30:22;13.40;66.60
14850;DHT22;7517;48.400;11.770;2024-03-23T05:32:53;13.30;66.50
14850;DHT22;7517;48.400;11.770;2024-03-23T05:35:21;13.40;66.40
14850;DHT22;7517;48.400;11.770;2024-03-23T05:37:47;13.30;66.20
14850;DHT22;7517;48.400;11.770;2024-03-23T05:40:15;13.40;66.10
14850;DHT22;7517;48.400;11.770;2024-03-23T05:42:41;13.30;66.80
14850;DHT22;7517;48.400;11.770;2024-03-23T05:45:09;13.30;66.20
14850;DHT22;7517;48.400;11.770;2024-03-23T05:47:42;13.40;66.40
14850;DHT22;7517;48.400;11.770;2024-03-23T05:50:12;13.40;66.50
14850;DHT22;7517;48.400;11.770;2024-03-23T05:52:39;13.30;66.60
14850;DHT22;7517;48.400;11.770;2024-03-23T05:55:08;13.30;66.70
14850;DHT22;7517;48.400;11.770;2024-03-23T05:57:35;13.30;66.70
14850;DHT22;7517;48.400;11.770;2024-03-23T06:00:07;13.30;66.70
14850;DHT22;7517;48.400;11.770;2024-03-23T06:02:36;13.40;66.90
14850;DHT22;7517;48.400;11.770;2024-03-23T06:05:05;13.40;66.90
14850;DHT22;7517;48.400;11.770;2024-03-23T06:07:38;13.40;67.10
14850;DHT22;7517;48.400;11.770;2024-03-23T06:10:07;13.30;67.10
14850;DHT22;7517;48.400;11.770;2024-03-23T06:12:34;13.40;67.00
14850;DHT22;7517;48.400;11.770;2024-03-23T06:15:03;13.40;66.90
14850;DHT22;7517;48.400;11.770;2024-03-23T06:17:31;13.40;66.90
14850;DHT22;7517;48.400;11.770;2024-03-23T06:19:58;13.40;67.00
14850;DHT22;7517;48.400;11.770;2024-03-23T06:22:24;13.40;67.00
14850;DHT22;7517;48.400;11.770;2024-03-23T06:24:53;13.40;66.90
14850;DHT22;7517;48.400;11.770;2024-03-23T06:27:20;13.40;67.10
14850;DHT22;7517;48.400;11.770;2024-03-23T06:29:47;13.40;67.30
14850;DHT22;7517;48.400;11.770;2024-03-23T06:32:15;13.40;67.20
14850;DHT22;7517;48.400;11.770;2024-03-23T06:34:44;13.40;66.90
14850;DHT22;7517;48.400;11.770;2024-03-23T06:37:11;13.50;66.80
14850;DHT22;7517;48.400;11.770;2024-03-23T06:39:39;13.50;66.70
14850;DHT22;7517;48.400;11.770;2024-03-23T06:42:08;13.60;66.80
14850;DHT22;7517;48.400;11.770;2024-03-23T06:44:35;13.60;66.60
14850;DHT22;7517;48.400;11.770;2024-03-23T06:47:01;13.70;66.60
14850;DHT22;7517;48.400;11.770;2024-03-23T06:49:29;13.80;66.50
14850;DHT22;7517;48.400;11.770;2024-03-23T06:51:55;13.90;66.60
14850;DHT22;7517;48.400;11.770;2024-03-23T06:54:22;14.00;66.50
14850;DHT22;7517;48.400;11.770;2024-03-23T06:56:50;14.10;66.30
14850;DHT22;7517;48.400;11.770;2024-03-23T06:59:18;14.20;66.30
14850;DHT22;7517;48.400;11.770;2024-03-23T07:01:46;14.30;66.20
14850;DHT22;7517;48.400;11.770;2024-03-23T07:04:14;14.40;66.40
14850;DHT22;7517;48.400;11.770;2024-03-23T07:06:43;14.60;66.60
14850;DHT22;7517;48.400;11.770;2024-03-23T07:09:13;14.70;66.90
14850;DHT22;7517;48.400;11.770;2024-03-23T07:11:40;14.90;66.90
14850;DHT22;7517;48.400;11.770;2024-03-23T07:14:07;15.10;66.70
14850;DHT22;7517;48.400;11.770;2024-03-23T07:16:35;15.30;66.60
14850;DHT22;7517;48.400;11.770;2024-03-23T07:19:02;15.50;66.50
14850;DHT22;7517;48.400;11.770;2024-03-23T07:21:28;15.80;66.50
14850;DHT22;7517;48.400;11.770;2024-03-23T07:23:56;16.00;66.40
14850;DHT22;7517;48.400;11.770;2024-03-23T07:26:22;16.20;66.00
14850;DHT22;7517;48.400;11.770;2024-03-23T07:28:49;16.40;65.60
14850;DHT22;7517;48.400;11.770;2024-03-23T07:31:16;16.60;65.50
14850;DHT22;7517;48.400;11.770;2024-03-23T07:33:46;16.80;65.60
14850;DHT22;7517;48.400;11.770;2024-03-23T07:36:14;16.90;64.20
14850;DHT22;7517;48.400;11.770;2024-03-23T07:38:42;17.10;63.90
14850;DHT22;7517;48.400;11.770;2024-03-23T07:41:11;17.20;63.90
14850;DHT22;7517;48.400;11.770;2024-03-23T07:43:44;17.30;63.60
14850;DHT22;7517;48.400;11.770;2024-03-23T07:46:11;17.40;63.30
14850;DHT22;7517;48.400;11.770;2024-03-23T07:48:39;17.50;63.50
14850;DHT22;7517;48.400;11.770;2024-03-23T07:51:14;17.50;63.40
14850;DHT22;7517;48.400;11.770;2024-03-23T07:53:45;17.60;63.20
14850;DHT22;7517;48.400;11.770;2024-03-23T07:56:12;17.70;63.30
14850;DHT22;7517;48.400;11.770;2024-03-23T07:58:41;17.70;63.50
14850;DHT22;7517;48.400;11.770;2024-03-23T08:01:08;17.70;63.60
14850;DHT22;7517;48.400;11.770;2024-03-23T08:03:38;17.70;63.70
14850;DHT22;7517;48.400;11.770;2024-03-23T08:06:12;17.70;64.10
14850;DHT22;7517;48.400;11.770;2024-03-23T08:08:41;17.70;64.50
14850;DHT22;7517;48.400;11.770;2024-03-23T08:11:11;17.70;64.90
14850;DHT22;7517;48.400;11.770;2024-03-23T08:13:40;17.60;64.00
14850;DHT22;7517;48.400;11.770;2024-03-23T08:16:08;17.50;63.50
14850;DHT22;7517;48.400;11.770;2024-03-23T08:18:35;17.40;63.30
14850;DHT22;7517;48.400;11.770;2024-03-23T08:21:03;17.30;63.30
14850;DHT22;7517;48.400;11.770;2024-03-23T08:23:34;17.20;63.70
14850;DHT22;7517;48.400;11.770;2024-03-23T08:26:02;17.00;63.60
14850;DHT22;7517;48.400;11.770;2024-03-23T08:28:32;16.90;63.80
14850;DHT22;7517;48.400;11.770;2024-03-23T08:31:01;16.70;64.00
14850;DHT22;7517;48.400;11.770;2024-03-23T08:33:29;16.60;64.30
14850;DHT22;7517;48.400;11.770;2024-03-23T08:35:57;16.40;64.60
14850;DHT22;7517;48.400;11.770;2024-03-23T08:38:26;16.30;65.00
14850;DHT22;7517;48.400;11.770;2024-03-23T08:40:58;16.20;65.10
14850;DHT22;7517;48.400;11.770;2024-03-23T08:43:26;16.10;65.30
14850;DHT22;7517;48.400;11.770;2024-03-23T08:45:53;16.00;65.40
14850;DHT22;7517;48.400;11.770;2024-03-23T08:48:30;15.90;65.90
14850;DHT22;7517;48.400;11.770;2024-03-23T08:51:01;15.80;66.20
14850;DHT22;7517;48.400;11.770;2024-03-23T08:53:30;15.70;66.20
14850;DHT22;7517;48.400;11.770;2024-03-23T08:55:59;15.60;66.50
14850;DHT22;7517;48.400;11.770;2024-03-23T08:58:29;15.50;66.80
14850;DHT22;7517;48.400;11.770;2024-03-23T09:00:57;15.50;67.10
14850;DHT22;7517;48.400;11.770;2024-03-23T09:03:31;15.40;67.50
14850;DHT22;7517;48.400;11.770;2024-03-23T09:05:58;15.30;67.60
14850;DHT22;7517;48.400;11.770;2024-03-23T09:08:26;15.30;67.50
14850;DHT22;7517;48.400;11.770;2024-03-23T09:10:52;15.30;67.80
14850;DHT22;7517;48.400;11.770;2024-03-23T09:13:23;15.20;67.90
14850;DHT22;7517;48.400;11.770;2024-03-23T09:15:51;15.20;68.00
14850;DHT22;7517;48.400;11.770;2024-03-23T09:18:23;15.20;68.00
14850;DHT22;7517;48.400;11.770;2024-03-23T09:20:50;15.20;68.30
14850;DHT22;7517;48.400;11.770;2024-03-23T09:23:19;15.20;68.90
14850;DHT22;7517;48.400;11.770;2024-03-23T09:25:45;15.20;68.40
14850;DHT22;7517;48.400;11.770;2024-03-23T09:28:15;15.20;68.30
14850;DHT22;7517;48.400;11.770;2024-03-23T09:30:43;15.20;67.90
14850;DHT22;7517;48.400;11.770;2024-03-23T09:33:11;15.20;67.50
14850;DHT22;7517;48.400;11.770;2024-03-23T09:35:38;15.20;67.40
14850;DHT22;7517;48.400;11.770;2024-03-23T09:38:08;15.20;67.10
14850;DHT22;7517;48.400;11.770;2024-03-23T09:40:39;15.20;66.90
14850;DHT22;7517;48.400;11.770;2024-03-23T09:43:07;15.10;67.10
14850;DHT22;7517;48.400;11.770;2024-03-23T09:45:38;15.10;66.90
14850;DHT22;7517;48.400;11.770;2024-03-23T09:48:09;15.10;66.90
14850;DHT22;7517;48.400;11.770;2024-03-23T09:50:37;15.10;66.70
14850;DHT22;7517;48.400;11.770;2024-03-23T09:53:05;15.10;66.50
14850;DHT22;7517;48.400;11.770;2024-03-23T09:55:33;15.10;66.80
14850;DHT22;7517;48.400;11.770;2024-03-23T09:58:03;15.10;67.00
14850;DHT22;7517;48.400;11.770;2024-03-23T10:00:38;15.10;67.00
14850;DHT22;7517;48.400;11.770;2024-03-23T10:03:09;15.10;66.70
14850;DHT22;7517;48.400;11.770;2024-03-23T10:05:37;15.20;66.80
14850;DHT22;7517;48.400;11.770;2024-03-23T10:08:18;15.20;66.50
14850;DHT22;7517;48.400;11.770;2024-03-23T10:10:45;15.20;66.00
14850;DHT22;7517;48.400;11.770;2024-03-23T10:13:24;15.20;65.40
14850;DHT22;7517;48.400;11.770;2024-03-23T10:15:56;15.20;65.60
14850;DHT22;7517;48.400;11.770;2024-03-23T10:18:27;15.10;65.00
14850;DHT22;7517;48.400;11.770;2024-03-23T10:21:07;15.10;65.00
14850;DHT22;7517;48.400;11.770;2024-03-23T10:23:37;15.10;64.60
14850;DHT22;7517;48.400;11.770;2024-03-23T10:26:16;15.00;65.30
14850;DHT22;7517;48.400;11.770;2024-03-23T10:28:54;15.00;65.90
14850;DHT22;7517;48.400;11.770;2024-03-23T10:31:23;15.00;66.00
14850;DHT22;7517;48.400;11.770;2024-03-23T10:33:53;15.00;65.90
14850;DHT22;7517;48.400;11.770;2024-03-23T10:36:21;15.00;65.80
14850;DHT22;7517;48.400;11.770;2024-03-23T10:38:54;15.00;66.20
14850;DHT22;7517;48.400;11.770;2024-03-23T10:41:21;15.00;66.30
14850;DHT22;7517;48.400;11.770;2024-03-23T10:43:49;15.10;65.90
14850;DHT22;7517;48.400;11.770;2024-03-23T10:46:17;15.10;66.00
14850;DHT22;7517;48.400;11.770;2024-03-23T10:48:45;15.20;66.20
14850;DHT22;7517;48.400;11.770;2024-03-23T10:51:14;15.20;66.30
14850;DHT22;7517;48.400;11.770;2024-03-23T10:53:42;15.20;66.00
14850;DHT22;7517;48.400;11.770;2024-03-23T10:56:09;15.20;65.70
14850;DHT22;7517;48.400;11.770;2024-03-23T10:58:41;15.20;65.40
14850;DHT22;7517;48.400;11.770;2024-03-23T11:01:11;15.30;64.60
14850;DHT22;7517;48.400;11.770;2024-03-23T11:03:45;15.30;64.30
14850;DHT22;7517;48.400;11.770;2024-03-23T11:06:34;15.30;63.90
14850;DHT22;7517;48.400;11.770;2024-03-23T11:09:03;15.30;63.80
14850;DHT22;7517;48.400;11.770;2024-03-23T11:11:30;15.30;64.20
14850;DHT22;7517;48.400;11.770;2024-03-23T11:13:59;15.30;64.00
14850;DHT22;7517;48.400;11.770;2024-03-23T11:16:26;15.40;63.80
14850;DHT22;7517;48.400;11.770;2024-03-23T11:19:33;15.40;63.90
14850;DHT22;7517;48.400;11.770;2024-03-23T11:22:02;15.40;63.30
14850;DHT22;7517;48.400;11.770;2024-03-23T11:24:30;15.40;63.20
14850;DHT22;7517;48.400;11.770;2024-03-23T11:26:59;15.50;62.70
14850;DHT22;7517;48.400;11.770;2024-03-23T11:29:30;15.50;62.40
14850;DHT22;7517;48.400;11.770;2024-03-23T11:31:57;15.50;62.30
14850;DHT22;7517;48.400;11.770;2024-03-23T11:34:24;15.50;61.00
14850;DHT22;7517;48.400;11.770;2024-03-23T11:37:05;15.40;60.70
14850;DHT22;7517;48.400;11.770;2024-03-23T11:39:33;15.40;60.10
14850;DHT22;7517;48.400;11.770;2024-03-23T11:41:59;15.40;60.60
14850;DHT22;7517;48.400;11.770;2024-03-23T11:44:27;15.40;60.40
14850;DHT22;7517;48.400;11.770;2024-03-23T11:46:53;15.40;59.80
14850;DHT22;7517;48.400;11.770;2024-03-23T11:49:22;15.40;59.80
14850;DHT22;7517;48.400;11.770;2024-03-23T11:51:50;15.40;59.80
14850;DHT22;7517;48.400;11.770;2024-03-23T11:54:23;15.40;59.90
14850;DHT22;7517;48.400;11.770;2024-03-23T11:56:57;15.40;59.40
14850;DHT22;7517;48.400;11.770;2024-03-23T11:59:33;15.50;59.10
14850;DHT22;7517;48.400;11.770;2024-03-23T12:02:00;15.50;59.10
14850;DHT22;7517;48.400;11.770;2024-03-23T12:04:28;15.60;59.60
14850;DHT22;7517;48.400;11.770;2024-03-23T12:07:11;15.60;59.60
14850;DHT22;7517;48.400;11.770;2024-03-23T12:09:41;15.70;58.90
14850;DHT22;7517;48.400;11.770;2024-03-23T12:12:10;15.70;59.10
14850;DHT22;7517;48.400;11.770;2024-03-23T12:14:41;15.80;58.60
14850;DHT22;7517;48.400;11.770;2024-03-23T12:17:10;15.90;58.30
14850;DHT22;7517;48.400;11.770;2024-03-23T12:19:38;15.90;58.50
14850;DHT22;7517;48.400;11.770;2024-03-23T12:22:05;15.90;58.50
14850;DHT22;7517;48.400;11.770;2024-03-23T12:24:33;15.90;58.50
14850;DHT22;7517;48.400;11.770;2024-03-23T12:27:04;16.00;58.20
14850;DHT22;7517;48.400;11.770;2024-03-23T12:29:32;16.00;57.30
14850;DHT22;7517;48.400;11.770;2024-03-23T12:32:02;16.00;57.00
14850;DHT22;7517;48.400;11.770;2024-03-23T12:34:32;16.00;56.50
14850;DHT22;7517;48.400;11.770;2024-03-23T12:37:00;16.00;56.90
14850;DHT22;7517;48.400;11.770;2024-03-23T12:39:28;16.00;56.80
14850;DHT22;7517;48.400;11.770;2024-03-23T12:41:55;16.00;56.40
14850;DHT22;7517;48.400;11.770;2024-03-23T12:44:24;16.00;56.00
14850;DHT22;7517;48.400;11.770;2024-03-23T12:46:50;16.00;55.80
14850;DHT22;7517;48.400;11.770;2024-03-23T12:49:18;16.00;56.00
14850;DHT22;7517;48.400;11.770;2024-03-23T12:51:52;16.00;56.00
14850;DHT22;7517;48.400;11.770;2024-03-23T12:54:22;16.00;55.60
14850;DHT22;7517;48.400;11.770;2024-03-23T12:56:48;16.10;56.00
14850;DHT22;7517;48.400;11.770;2024-03-23T12:59:16;16.10;55.50
14850;DHT22;7517;48.400;11.770;2024-03-23T13:01:46;16.10;55.10
14850;DHT22;7517;48.400;11.770;2024-03-23T13:04:14;16.10;54.40
14850;DHT22;7517;48.400;11.770;2024-03-23T13:06:40;16.00;54.90
14850;DHT22;7517;48.400;11.770;2024-03-23T13:09:07;16.00;55.00
14850;DHT22;7517;48.400;11.770;2024-03-23T13:11:34;16.00;55.30
14850;DHT22;7517;48.400;11.770;2024-03-23T13:14:01;16.00;55.40
14850;DHT22;7517;48.400;11.770;2024-03-23T13:16:29;16.00;55.30
14850;DHT22;7517;48.400;11.770;2024-03-23T13:18:58;16.00;55.10
14850;DHT22;7517;48.400;11.770;2024-03-23T13:21:24;16.00;54.60
14850;DHT22;7517;48.400;11.770;2024-03-23T13:23:51;16.00;54.20
14850;DHT22;7517;48.400;11.770;2024-03-23T13:26:17;16.00;54.00
14850;DHT22;7517;48.400;11.770;2024-03-23T13:28:45;16.00;54.40
14850;DHT22;7517;48.400;11.770;2024-03-23T13:31:12;15.90;54.50
14850;DHT22;7517;48.400;11.770;2024-03-23T13:33:39;15.90;54.40
14850;DHT22;7517;48.400;11.770;2024-03-23T13:36:09;15.90;54.40
14850;DHT22;7517;48.400;11.770;2024-03-23T13:38:37;15.90;55.10
14850;DHT22;7517;48.400;11.770;2024-03-23T13:41:04;15.90;54.40
14850;DHT22;7517;48.400;11.770;2024-03-23T13:43:34;15.80;54.20
14850;DHT22;7517;48.400;11.770;2024-03-23T13:46:00;15.80;54.50
14850;DHT22;7517;48.400;11.770;2024-03-23T13:48:28;15.70;54.30
14850;DHT22;7517;48.400;11.770;2024-03-23T13:50:58;15.70;54.40
14850;DHT22;7517;48.400;11.770;2024-03-23T13:53:27;15.60;54.30
14850;DHT22;7517;48.400;11.770;2024-03-23T13:55:53;15.60;54.20
14850;DHT22;7517;48.400;11.770;2024-03-23T13:58:21;15.50;54.80
14850;DHT22;7517;48.400;11.770;2024-03-23T14:00:49;15.40;54.70
14850;DHT22;7517;48.400;11.770;2024-03-23T14:03:16;15.30;55.00
14850;DHT22;7517;48.400;11.770;2024-03-23T14:05:44;15.20;55.50
14850;DHT22;7517;48.400;11.770;2024-03-23T14:08:14;15.10;56.10
14850;DHT22;7517;48.400;11.770;2024-03-23T14:10:42;14.90;56.50
14850;DHT22;7517;48.400;11.770;2024-03-23T14:13:10;14.80;56.80
14850;DHT22;7517;48.400;11.770;2024-03-23T14:15:36;14.70;57.20
14850;DHT22;7517;48.400;11.770;2024-03-23T14:18:04;14.50;57.60
14850;DHT22;7517;48.400;11.770;2024-03-23T14:20:31;14.40;57.70
14850;DHT22;7517;48.400;11.770;2024-03-23T14:22:58;14.30;57.90
14850;DHT22;7517;48.400;11.770;2024-03-23T14:25:24;14.20;58.10
14850;DHT22;7517;48.400;11.770;2024-03-23T14:27:56;14.10;58.10
14850;DHT22;7517;48.400;11.770;2024-03-23T14:30:23;14.00;57.90
14850;DHT22;7517;48.400;11.770;2024-03-23T14:32:50;13.90;57.80
14850;DHT22;7517;48.400;11.770;2024-03-23T14:35:17;13.80;58.30
14850;DHT22;7517;48.400;11.770;2024-03-23T14:37:44;13.70;58.30
14850;DHT22;7517;48.400;11.770;2024-03-23T14:40:12;13.70;58.40
14850;DHT22;7517;48.400;11.770;2024-03-23T14:42:40;13.70;58.50
14850;DHT22;7517;48.400;11.770;2024-03-23T14:45:08;13.70;58.30
14850;DHT22;7517;48.400;11.770;2024-03-23T14:47:37;13.60;58.30
14850;DHT22;7517;48.400;11.770;2024-03-23T14:50:05;13.60;58.20
14850;DHT22;7517;48.400;11.770;2024-03-23T14:52:35;13.60;57.60
14850;DHT22;7517;48.400;11.770;2024-03-23T14:55:01;13.60;57.60
14850;DHT22;7517;48.400;11.770;2024-03-23T14:57:29;13.60;57.70
14850;DHT22;7517;48.400;11.770;2024-03-23T14:59:56;13.60;57.70
14850;DHT22;7517;48.400;11.770;2024-03-23T15:02:26;13.50;57.90
14850;DHT22;7517;48.400;11.770;2024-03-23T15:04:54;13.50;57.80
14850;DHT22;7517;48.400;11.770;2024-03-23T15:07:21;13.50;57.50
14850;DHT22;7517;48.400;11.770;2024-03-23T15:09:48;13.50;57.80
14850;DHT22;7517;48.400;11.770;2024-03-23T15:12:15;13.40;57.80
14850;DHT22;7517;48.400;11.770;2024-03-23T15:14:42;13.40;57.70
14850;DHT22;7517;48.400;11.770;2024-03-23T15:17:10;13.40;57.40
14850;DHT22;7517;48.400;11.770;2024-03-23T15:19:38;13.40;57.60
14850;DHT22;7517;48.400;11.770;2024-03-23T15:22:05;13.40;57.50
14850;DHT22;7517;48.400;11.770;2024-03-23T15:24:32;13.40;57.50
14850;DHT22;7517;48.400;11.770;2024-03-23T15:27:01;13.40;57.40
14850;DHT22;7517;48.400;11.770;2024-03-23T15:29:28;13.40;57.70
14850;DHT22;7517;48.400;11.770;2024-03-23T15:31:55;13.40;57.70
14850;DHT22;7517;48.400;11.770;2024-03-23T15:34:22;13.40;57.90
14850;DHT22;7517;48.400;11.770;2024-03-23T15:36:51;13.50;57.90
14850;DHT22;7517;48.400;11.770;2024-03-23T15:39:18;13.40;57.80
14850;DHT22;7517;48.400;11.770;2024-03-23T15:41:47;13.40;57.60
14850;DHT22;7517;48.400;11.770;2024-03-23T15:44:14;13.40;57.80
14850;DHT22;7517;48.400;11.770;2024-03-23T15:46:41;13.40;57.60
14850;DHT22;7517;48.400;11.770;2024-03-23T15:49:08;13.40;57.60
14850;DHT22;7517;48.400;11.770;2024-03-23T15:51:35;13.40;57.50
14850;DHT22;7517;48.400;11.770;2024-03-23T15:54:04;13.50;57.50
14850;DHT22;7517;48.400;11.770;2024-03-23T15:56:33;13.40;57.30
14850;DHT22;7517;48.400;11.770;2024-03-23T15:58:59;13.50;57.30
14850;DHT22;7517;48.400;11.770;2024-03-23T16:01:31;13.50;57.00
14850;DHT22;7517;48.400;11.770;2024-03-23T16:04:00;13.50;57.10
14850;DHT22;7517;48.400;11.770;2024-03-23T16:06:29;13.60;57.20
14850;DHT22;7517;48.400;11.770;2024-03-23T16:08:56;13.50;57.00
14850;DHT22;7517;48.400;11.770;2024-03-23T16:11:25;13.60;57.00
14850;DHT22;7517;48.400;11.770;2024-03-23T16:13:51;13.60;57.20
14850;DHT22;7517;48.400;11.770;2024-03-23T16:16:18;13.60;56.90
14850;DHT22;7517;48.400;11.770;2024-03-23T16:18:47;13.70;56.90
14850;DHT22;7517;48.400;11.770;2024-03-23T16:21:17;13.70;56.70
14850;DHT22;7517;48.400;11.770;2024-03-23T16:23:44;13.80;56.70
14850;DHT22;7517;48.400;11.770;2024-03-23T16:26:12;13.80;56.50
14850;DHT22;7517;48.400;11.770;2024-03-23T16:28:41;13.80;56.60
14850;DHT22;7517;48.400;11.770;2024-03-23T16:31:09;13.80;56.40